createdAt,value
2022-11-28T00:01:30.117Z,87.50
2022-11-28T00:03:57.117Z,91.53
2022-11-28T00:06:24.329Z,101.87
2022-11-28T00:08:51.529Z,104.67
2022-11-28T00:11:18.581Z,95.00
2022-11-28T00:13:46.618Z,92.50
2022-11-28T00:16:18.052Z,98.00
2022-11-28T00:18:45.071Z,103.20
2022-11-28T00:21:14.106Z,103.20
2022-11-28T00:23:44.062Z,97.43
2022-11-28T00:26:24.527Z,96.20
2022-11-28T00:28:51.766Z,98.17
2022-11-28T00:31:23.696Z,99.33
2022-11-28T00:33:51.319Z,92.63
2022-11-28T00:36:19.491Z,94.60
2022-11-28T00:38:46.766Z,96.83
2022-11-28T00:41:18.972Z,96.80
2022-11-28T00:43:47.089Z,96.13
2022-11-28T00:46:15.490Z,100.50
2022-11-28T00:48:42.922Z,96.00
2022-11-28T00:51:29.200Z,99.60
2022-11-28T00:53:59.253Z,102.00
2022-11-28T00:56:29.946Z,85.87
2022-11-28T00:58:57.563Z,96.10
2022-11-28T01:01:41.752Z,102.30
2022-11-28T01:04:13.073Z,98.73
2022-11-28T01:06:44.165Z,100.00
2022-11-28T01:09:18.232Z,100.53
2022-11-28T01:11:49.082Z,100.93
2022-11-28T01:14:19.014Z,89.07
2022-11-28T01:16:46.047Z,95.23
2022-11-28T01:19:13.939Z,99.40
2022-11-28T01:21:41.738Z,104.43
2022-11-28T01:24:09.009Z,86.03
2022-11-28T01:26:37.963Z,101.83
2022-11-28T01:29:04.938Z,94.63
2022-11-28T01:31:31.985Z,98.43
2022-11-28T01:33:59.474Z,91.40
2022-11-28T01:36:27.733Z,89.47
2022-11-28T01:38:54.993Z,87.80
2022-11-28T01:41:26.466Z,91.03
2022-11-28T01:44:27.726Z,86.87
2022-11-28T01:46:54.728Z,89.50
2022-11-28T01:49:26.321Z,86.63
2022-11-28T01:52:00.190Z,89.93
2022-11-28T01:54:28.378Z,93.13
2022-11-28T01:57:06.784Z,83.50
2022-11-28T01:59:41.637Z,89.23
2022-11-28T02:02:15.981Z,93.53
2022-11-28T02:04:43.115Z,100.77
2022-11-28T02:07:10.245Z,81.53
2022-11-28T02:09:37.130Z,82.73
2022-11-28T02:12:22.114Z,81.27
2022-11-28T02:15:07.813Z,91.53
2022-11-28T02:18:01.624Z,90.13
2022-11-28T02:21:05.989Z,85.50
2022-11-28T02:24:38.554Z,79.80
2022-11-28T02:27:44.201Z,89.03
2022-11-28T02:30:19.707Z,85.00
2022-11-28T02:33:21.646Z,82.70
2022-11-28T02:36:03.833Z,78.10
2022-11-28T02:39:00.395Z,82.70
2022-11-28T02:41:40.083Z,74.97
2022-11-28T02:44:40.010Z,85.83
2022-11-28T02:47:33.049Z,76.13
2022-11-28T02:50:10.210Z,79.80
2022-11-28T02:52:44.260Z,78.53
2022-11-28T02:55:13.182Z,79.87
2022-11-28T02:57:47.517Z,83.27
2022-11-28T03:00:32.424Z,74.33
2022-11-28T03:03:38.500Z,80.87
2022-11-28T03:06:48.538Z,81.23
2022-11-28T03:09:40.040Z,73.33
2022-11-28T03:12:33.943Z,71.07
2022-11-28T03:15:05.156Z,76.33
2022-11-28T03:18:04.866Z,76.67
2022-11-28T03:20:48.515Z,72.20
2022-11-28T03:23:23.793Z,78.07
2022-11-28T03:26:12.083Z,73.43
2022-11-28T03:29:01.325Z,73.43
2022-11-28T03:31:38.631Z,72.17
2022-11-28T03:34:09.573Z,72.60
2022-11-28T03:36:46.173Z,77.37
2022-11-28T03:39:18.289Z,69.80
2022-11-28T03:42:01.920Z,69.50
2022-11-28T03:44:37.363Z,67.90
2022-11-28T03:47:05.796Z,76.57
2022-11-28T03:49:39.033Z,73.70
2022-11-28T03:52:12.000Z,69.50
2022-11-28T03:54:51.568Z,67.43
2022-11-28T03:57:25.248Z,68.00
2022-11-28T03:59:54.164Z,69.80
2022-11-28T04:02:38.886Z,67.10
2022-11-28T04:05:33.116Z,67.90
2022-11-28T04:08:18.399Z,78.93
2022-11-28T04:10:56.147Z,69.03
2022-11-28T04:13:29.679Z,76.23
2022-11-28T04:16:24.152Z,70.47
2022-11-28T04:19:16.981Z,72.17
2022-11-28T04:21:54.592Z,65.20
2022-11-28T04:24:28.789Z,75.20
2022-11-28T04:27:01.708Z,65.67
2022-11-28T04:29:35.903Z,70.77
2022-11-28T04:32:05.100Z,70.10
2022-11-28T04:34:35.118Z,65.27
2022-11-28T04:37:08.304Z,68.60
2022-11-28T04:39:37.963Z,66.57
2022-11-28T04:42:31.158Z,74.60
2022-11-28T04:45:09.059Z,69.83
2022-11-28T04:47:35.955Z,76.77
2022-11-28T04:50:03.166Z,65.30
2022-11-28T04:52:54.592Z,66.13
2022-11-28T04:55:54.392Z,67.30
2022-11-28T04:58:40.689Z,65.33
2022-11-28T05:01:12.593Z,69.93
2022-11-28T05:03:42.754Z,67.90
2022-11-28T05:06:10.181Z,60.47
2022-11-28T05:08:37.265Z,64.07
2022-11-28T05:11:04.247Z,70.40
2022-11-28T05:13:31.110Z,76.53
2022-11-28T05:16:01.583Z,67.23
2022-11-28T05:18:28.544Z,67.37
2022-11-28T05:20:55.455Z,74.80
2022-11-28T05:23:22.362Z,69.80
2022-11-28T05:25:49.240Z,60.13
2022-11-28T05:28:16.150Z,74.53
2022-11-28T05:30:43.046Z,69.13
2022-11-28T05:33:09.925Z,75.03
2022-11-28T05:35:40.078Z,73.97
2022-11-28T05:38:12.117Z,68.83
2022-11-28T05:40:44.234Z,65.70
2022-11-28T05:43:11.885Z,71.70
2022-11-28T05:45:43.340Z,79.77
2022-11-28T05:48:10.754Z,73.30
2022-11-28T05:50:42.011Z,77.50
2022-11-28T05:53:09.740Z,72.30
2022-11-28T05:55:41.317Z,75.73
2022-11-28T05:58:08.369Z,72.40
2022-11-28T06:00:35.600Z,67.97
2022-11-28T06:03:04.583Z,73.37
2022-11-28T06:05:47.500Z,83.07
2022-11-28T06:08:14.494Z,71.37
2022-11-28T06:10:41.808Z,68.83
2022-11-28T06:13:09.161Z,71.97
2022-11-28T06:15:38.360Z,67.23
2022-11-28T06:18:06.085Z,68.27
2022-11-28T06:20:35.819Z,69.47
2022-11-28T06:23:02.732Z,70.43
2022-11-28T06:25:29.896Z,73.53
2022-11-28T06:27:56.782Z,78.53
2022-11-28T06:30:23.709Z,67.53
2022-11-28T06:32:50.581Z,73.40
2022-11-28T06:35:17.587Z,78.23
2022-11-28T06:37:44.507Z,68.13
2022-11-28T06:40:11.587Z,75.57
2022-11-28T06:42:38.603Z,73.60
2022-11-28T06:45:06.526Z,70.87
2022-11-28T06:47:33.503Z,80.03
2022-11-28T06:50:00.386Z,63.20
2022-11-28T06:52:27.560Z,68.03
2022-11-28T06:54:54.734Z,82.17
2022-11-28T06:57:22.178Z,70.37
2022-11-28T06:59:50.652Z,80.00
2022-11-28T07:02:17.673Z,72.30
2022-11-28T07:04:45.090Z,80.27
2022-11-28T07:07:16.253Z,73.63
2022-11-28T07:09:44.336Z,83.20
2022-11-28T07:12:11.422Z,82.40
2022-11-28T07:14:38.410Z,81.93
2022-11-28T07:17:05.404Z,80.07
2022-11-28T07:19:32.394Z,70.43
2022-11-28T07:21:59.314Z,80.73
2022-11-28T07:24:26.268Z,76.23
2022-11-28T07:26:53.215Z,76.40
2022-11-28T07:29:20.175Z,63.57
2022-11-28T07:31:47.125Z,83.40
2022-11-28T07:34:14.137Z,75.67
2022-11-28T07:36:41.026Z,84.63
2022-11-28T07:39:10.689Z,94.27
2022-11-28T07:41:37.563Z,85.63
2022-11-28T07:44:05.738Z,69.53
2022-11-28T07:46:33.397Z,65.87
2022-11-28T07:49:00.862Z,78.10
2022-11-28T07:51:32.172Z,75.77
2022-11-28T07:54:00.178Z,67.10
2022-11-28T07:56:50.219Z,65.17
2022-11-28T07:59:17.260Z,68.33
2022-11-28T08:01:44.242Z,75.33
2022-11-28T08:04:11.235Z,67.17
2022-11-28T08:06:41.206Z,70.23
2022-11-28T08:09:08.453Z,77.13
2022-11-28T08:11:36.132Z,64.53
2022-11-28T08:14:03.997Z,84.30
2022-11-28T08:16:31.449Z,76.50
2022-11-28T08:19:02.158Z,74.23
2022-11-28T08:21:32.512Z,72.10
2022-11-28T08:24:01.541Z,83.80
2022-11-28T08:26:31.318Z,73.20
2022-11-28T08:29:00.360Z,89.60
2022-11-28T08:31:31.224Z,80.37
2022-11-28T08:34:00.734Z,78.20
2022-11-28T08:36:29.372Z,76.67
2022-11-28T08:39:16.711Z,65.70
2022-11-28T08:41:43.975Z,69.33
2022-11-28T08:44:10.981Z,69.70
2022-11-28T08:46:37.920Z,71.87
2022-11-28T08:49:04.967Z,68.50
2022-11-28T08:51:31.944Z,68.13
2022-11-28T08:53:59.966Z,66.73
2022-11-28T08:56:27.795Z,63.77
2022-11-28T08:58:55.335Z,64.93
2022-11-28T09:01:25.149Z,64.13
2022-11-28T09:03:54.209Z,67.60
2022-11-28T09:06:22.386Z,66.53
2022-11-28T09:08:49.939Z,65.37
2022-11-28T09:11:20.293Z,67.43
2022-11-28T09:13:47.553Z,76.10
2022-11-28T09:16:15.506Z,64.93
2022-11-28T09:18:42.704Z,64.43
2022-11-28T09:21:12.943Z,65.77
2022-11-28T09:23:41.816Z,74.63
2022-11-28T09:26:20.524Z,59.60
2022-11-28T09:28:47.985Z,70.53
2022-11-28T09:31:17.115Z,65.90
2022-11-28T09:33:45.742Z,64.30
2022-11-28T09:36:16.524Z,68.97
2022-11-28T09:38:43.735Z,61.37
2022-11-28T09:41:28.590Z,54.67
2022-11-28T09:44:43.676Z,65.57
2022-11-28T09:47:19.192Z,55.57
2022-11-28T09:49:58.250Z,61.73
2022-11-28T09:52:40.648Z,55.07
2022-11-28T09:55:39.035Z,58.03
2022-11-28T09:58:32.140Z,53.23
2022-11-28T10:01:16.910Z,55.43
2022-11-28T10:03:56.343Z,49.80
2022-11-28T10:06:31.524Z,58.53
2022-11-28T10:09:39.149Z,48.30
2022-11-28T10:12:36.644Z,49.33
2022-11-28T10:15:10.376Z,44.73
2022-11-28T10:18:07.125Z,49.47
2022-11-28T10:20:39.949Z,51.40
2022-11-28T10:23:30.534Z,56.80
2022-11-28T10:26:04.324Z,48.27
2022-11-28T10:28:36.894Z,59.10
2022-11-28T10:31:25.615Z,51.07
2022-11-28T10:34:08.662Z,53.87
2022-11-28T10:37:01.504Z,50.83
2022-11-28T10:39:28.523Z,50.10
2022-11-28T10:42:29.569Z,43.97
2022-11-28T10:45:31.981Z,46.43
2022-11-28T10:48:40.974Z,41.63
2022-11-28T10:51:38.533Z,43.57
2022-11-28T10:54:42.015Z,44.03
2022-11-28T10:57:50.558Z,46.50
2022-11-28T11:00:19.608Z,39.10
2022-11-28T11:02:54.840Z,39.33
2022-11-28T11:05:32.638Z,42.10
2022-11-28T11:08:20.116Z,34.07
2022-11-28T11:11:06.578Z,43.27
2022-11-28T11:14:05.522Z,43.67
2022-11-28T11:16:51.832Z,38.97
2022-11-28T11:19:26.250Z,36.47
2022-11-28T11:22:16.641Z,40.07
2022-11-28T11:24:43.559Z,35.37
2022-11-28T11:27:23.444Z,34.97
2022-11-28T11:29:52.159Z,40.53
2022-11-28T11:32:28.199Z,38.93
2022-11-28T11:34:57.498Z,33.03
2022-11-28T11:37:38.686Z,43.13
2022-11-28T11:40:29.074Z,38.53
2022-11-28T11:43:01.428Z,50.97
2022-11-28T11:45:34.624Z,51.73
2022-11-28T11:48:03.771Z,38.87
2022-11-28T11:50:32.910Z,41.87
2022-11-28T11:53:06.485Z,50.10
2022-11-28T11:55:49.753Z,44.20
2022-11-28T11:58:22.393Z,38.60
2022-11-28T12:00:52.369Z,42.67
2022-11-28T12:03:41.535Z,45.10
2022-11-28T12:06:23.419Z,45.33
2022-11-28T12:08:54.870Z,36.77
2022-11-28T12:11:30.373Z,48.40
2022-11-28T12:14:26.292Z,45.27
2022-11-28T12:17:25.602Z,42.83
2022-11-28T12:20:30.521Z,44.70
2022-11-28T12:23:17.595Z,49.20
2022-11-28T12:26:01.893Z,43.33
2022-11-28T12:29:07.152Z,46.80
2022-11-28T12:31:58.729Z,49.37
2022-11-28T12:35:08.992Z,53.43
2022-11-28T12:38:12.796Z,52.57
2022-11-28T12:41:11.397Z,43.30
2022-11-28T12:44:16.299Z,48.20
2022-11-28T12:47:02.236Z,45.50
2022-11-28T12:49:58.018Z,51.83
2022-11-28T12:53:17.793Z,65.30
2022-11-28T12:56:04.772Z,52.17
2022-11-28T12:58:43.220Z,48.33
2022-11-28T13:01:49.781Z,45.87
2022-11-28T13:04:42.843Z,47.00
2022-11-28T13:07:54.309Z,49.90
2022-11-28T13:10:46.790Z,41.17
2022-11-28T13:13:22.845Z,46.97
2022-11-28T13:15:49.683Z,51.03
2022-11-28T13:18:33.884Z,47.17
2022-11-28T13:21:43.794Z,59.30
2022-11-28T13:24:23.600Z,45.07
2022-11-28T13:27:22.008Z,49.60
2022-11-28T13:30:23.219Z,42.33
2022-11-28T13:33:12.171Z,41.90
2022-11-28T13:35:42.843Z,56.50
2022-11-28T13:39:11.123Z,59.80
2022-11-28T13:42:59.532Z,63.47
2022-11-28T13:45:03.363Z,61.63
2022-11-28T13:47:35.203Z,61.93
2022-11-28T13:50:30.331Z,57.70
2022-11-28T13:53:12.621Z,64.17
2022-11-28T13:55:49.449Z,58.83
2022-11-28T13:58:22.401Z,61.70
2022-11-28T14:01:07.804Z,58.93
2022-11-28T14:03:44.266Z,59.37
2022-11-28T14:06:16.291Z,81.20
2022-11-28T14:08:44.929Z,66.97
2022-11-28T14:11:27.725Z,59.80
2022-11-28T14:14:09.889Z,49.67
2022-11-28T14:17:11.594Z,52.43
2022-11-28T14:20:02.249Z,74.77
2022-11-28T14:22:48.832Z,75.77
2022-11-28T14:25:39.034Z,82.43
2022-11-28T14:28:37.779Z,98.07
2022-11-28T14:31:32.249Z,72.33
2022-11-28T14:34:03.651Z,81.00
2022-11-28T14:36:42.911Z,63.00
2022-11-28T14:39:14.375Z,63.53
2022-11-28T14:42:03.173Z,71.73
2022-11-28T14:44:57.221Z,57.43
2022-11-28T14:47:24.031Z,59.40
2022-11-28T14:50:09.388Z,55.57
2022-11-28T14:52:44.730Z,62.30
2022-11-28T14:55:13.098Z,53.80
2022-11-28T14:58:00.357Z,58.27
2022-11-28T15:00:35.298Z,52.27
2022-11-28T15:03:50.844Z,60.23
2022-11-28T15:06:31.121Z,58.77
2022-11-28T15:09:19.868Z,55.70
2022-11-28T15:12:14.407Z,101.63
2022-11-28T15:14:42.655Z,53.33
2022-11-28T15:17:13.788Z,53.17
2022-11-28T15:19:47.758Z,56.33
2022-11-28T15:22:41.254Z,50.77
2022-11-28T15:25:35.701Z,70.23
2022-11-28T15:28:20.579Z,66.90
2022-11-28T15:30:52.167Z,65.67
2022-11-28T15:33:20.796Z,62.23
2022-11-28T15:36:15.657Z,49.83
2022-11-28T15:38:43.624Z,60.63
2022-11-28T15:41:11.145Z,72.73
2022-11-28T15:43:42.464Z,63.03
2022-11-28T15:46:20.874Z,64.17
2022-11-28T15:48:52.404Z,63.17
2022-11-28T15:51:32.809Z,63.70
2022-11-28T15:54:03.408Z,59.00
2022-11-28T15:56:30.530Z,57.47
2022-11-28T15:58:57.600Z,66.40
2022-11-28T16:01:27.710Z,56.60
2022-11-28T16:04:15.033Z,55.93
2022-11-28T16:06:50.492Z,56.13
2022-11-28T16:09:20.436Z,55.63
2022-11-28T16:11:51.585Z,109.30
2022-11-28T16:14:28.523Z,60.00
2022-11-28T16:16:57.822Z,74.80
2022-11-28T16:19:31.213Z,66.80
2022-11-28T16:22:11.614Z,81.00
2022-11-28T16:24:51.106Z,86.63
2022-11-28T16:27:41.639Z,83.37
2022-11-28T16:30:38.382Z,62.77
2022-11-28T16:33:38.987Z,64.30
2022-11-28T16:36:22.827Z,69.20
2022-11-28T16:38:53.722Z,85.30
2022-11-28T16:41:25.590Z,71.30
2022-11-28T16:44:25.220Z,64.67
2022-11-28T16:46:55.595Z,57.43
2022-11-28T16:49:37.210Z,56.00
2022-11-28T16:52:22.217Z,58.00
2022-11-28T16:54:56.791Z,63.27
2022-11-28T16:57:27.615Z,53.40
2022-11-28T16:59:58.598Z,51.73
2022-11-28T17:02:27.062Z,52.50
2022-11-28T17:04:54.298Z,53.63
2022-11-28T17:07:24.279Z,56.87
2022-11-28T17:09:51.762Z,47.43
2022-11-28T17:12:39.697Z,46.93
2022-11-28T17:15:14.501Z,43.80
2022-11-28T17:17:41.487Z,57.07
2022-11-28T17:20:09.401Z,61.47
2022-11-28T17:22:45.843Z,59.37
2022-11-28T17:25:19.553Z,52.40
2022-11-28T17:27:48.224Z,59.97
2022-11-28T17:30:19.771Z,55.40
2022-11-28T17:32:52.088Z,52.10
2022-11-28T17:35:24.180Z,50.30
2022-11-28T17:37:51.327Z,53.37
2022-11-28T17:40:33.027Z,44.40
2022-11-28T17:43:01.203Z,55.73
2022-11-28T17:45:30.721Z,54.67
2022-11-28T17:47:58.713Z,51.83
2022-11-28T17:50:25.643Z,45.03
2022-11-28T17:52:52.780Z,45.40
2022-11-28T17:55:20.756Z,51.00
2022-11-28T17:57:47.959Z,47.17
2022-11-28T18:00:16.807Z,49.97
2022-11-28T18:02:44.851Z,54.83
2022-11-28T18:05:12.224Z,45.13
2022-11-28T18:07:40.427Z,50.60
2022-11-28T18:10:11.253Z,48.97
2022-11-28T18:12:39.474Z,52.83
2022-11-28T18:15:08.156Z,49.40
2022-11-28T18:17:35.608Z,46.67
2022-11-28T18:20:03.662Z,53.83
2022-11-28T18:22:30.901Z,50.47
2022-11-28T18:24:58.113Z,56.50
2022-11-28T18:27:25.047Z,51.00
2022-11-28T18:29:51.968Z,56.67
2022-11-28T18:32:18.993Z,48.17
2022-11-28T18:34:47.051Z,52.97
2022-11-28T18:37:14.130Z,46.90
2022-11-28T18:39:42.205Z,49.13
2022-11-28T18:42:09.396Z,48.37
2022-11-28T18:44:36.275Z,60.10
2022-11-28T18:47:03.169Z,53.77
2022-11-28T18:49:30.195Z,53.70
2022-11-28T18:51:57.582Z,51.47
2022-11-28T18:54:25.753Z,56.87
2022-11-28T18:56:52.685Z,55.10
2022-11-28T18:59:20.152Z,55.60
2022-11-28T19:01:47.531Z,56.33
2022-11-28T19:04:16.792Z,48.50
2022-11-28T19:06:44.888Z,51.70
2022-11-28T19:09:14.820Z,51.20
2022-11-28T19:11:42.454Z,48.97
2022-11-28T19:14:15.680Z,46.53
2022-11-28T19:16:43.610Z,49.20
2022-11-28T19:19:14.266Z,57.63
2022-11-28T19:21:41.260Z,53.13
2022-11-28T19:24:08.726Z,50.63
2022-11-28T19:26:37.910Z,50.87
2022-11-28T19:29:05.833Z,53.50
2022-11-28T19:31:35.450Z,55.10
2022-11-28T19:34:12.275Z,53.93
2022-11-28T19:36:45.654Z,79.67
2022-11-28T19:39:26.272Z,60.30
2022-11-28T19:41:55.123Z,69.60
2022-11-28T19:44:24.658Z,75.50
2022-11-28T19:46:53.492Z,67.47
2022-11-28T19:49:24.087Z,78.10
2022-11-28T19:51:52.262Z,55.37
2022-11-28T19:54:22.417Z,53.53
2022-11-28T19:56:50.140Z,52.10
2022-11-28T19:59:19.347Z,49.20
2022-11-28T20:01:49.764Z,54.07
2022-11-28T20:04:17.291Z,52.27
2022-11-28T20:06:44.169Z,51.37
2022-11-28T20:09:13.654Z,59.80
2022-11-28T20:11:43.545Z,59.47
2022-11-28T20:14:15.263Z,52.90
2022-11-28T20:16:42.935Z,51.67
2022-11-28T20:19:12.403Z,60.23
2022-11-28T20:21:40.309Z,49.10
2022-11-28T20:24:08.671Z,53.83
2022-11-28T20:26:42.658Z,54.90
2022-11-28T20:29:15.078Z,49.53
2022-11-28T20:31:47.075Z,51.77
2022-11-28T20:34:17.364Z,54.73
2022-11-28T20:36:44.856Z,49.03
2022-11-28T20:39:12.882Z,53.73
2022-11-28T20:41:39.813Z,57.37
2022-11-28T20:44:06.755Z,46.93
2022-11-28T20:46:35.492Z,44.03
2022-11-28T20:49:06.234Z,94.53
2022-11-28T20:51:35.173Z,70.33
2022-11-28T20:54:04.748Z,74.10
2022-11-28T20:56:51.925Z,54.70
2022-11-28T20:59:23.416Z,42.97
2022-11-28T21:01:50.502Z,39.67
2022-11-28T21:04:18.866Z,41.10
2022-11-28T21:06:48.976Z,46.13
2022-11-28T21:09:20.542Z,49.93
2022-11-28T21:11:57.944Z,52.03
2022-11-28T21:14:26.530Z,45.40
2022-11-28T21:16:54.695Z,59.53
2022-11-28T21:19:21.910Z,42.20
2022-11-28T21:21:48.794Z,49.90
2022-11-28T21:24:15.869Z,47.60
2022-11-28T21:26:48.112Z,46.93
2022-11-28T21:29:20.149Z,38.10
2022-11-28T21:31:47.216Z,42.53
2022-11-28T21:34:16.606Z,50.50
2022-11-28T21:36:43.881Z,43.33
2022-11-28T21:39:14.908Z,38.77
2022-11-28T21:41:42.015Z,38.43
2022-11-28T21:44:09.204Z,40.70
2022-11-28T21:46:36.152Z,32.83
2022-11-28T21:49:03.065Z,38.33
2022-11-28T21:51:30.051Z,59.97
2022-11-28T21:53:57.917Z,49.00
2022-11-28T21:56:26.027Z,48.93
2022-11-28T21:58:54.218Z,47.87
2022-11-28T22:01:22.006Z,49.60
2022-11-28T22:03:49.471Z,56.33
2022-11-28T22:06:25.404Z,57.00
2022-11-28T22:08:54.046Z,54.53
2022-11-28T22:11:22.903Z,44.70
2022-11-28T22:13:51.099Z,35.80
2022-11-28T22:16:25.013Z,47.40
2022-11-28T22:18:54.453Z,39.13
2022-11-28T22:21:51.466Z,48.93
2022-11-28T22:24:09.277Z,63.67
2022-11-28T22:26:36.707Z,46.07
2022-11-28T22:29:04.501Z,42.13
2022-11-28T22:31:32.825Z,47.23
2022-11-28T22:34:00.081Z,43.87
2022-11-28T22:36:27.309Z,45.60
2022-11-28T22:38:56.523Z,61.70
2022-11-28T22:41:28.843Z,81.67
2022-11-28T22:44:00.838Z,74.03
2022-11-28T22:46:30.243Z,67.87
2022-11-28T22:49:02.333Z,68.13
2022-11-28T22:51:31.525Z,46.73
2022-11-28T22:54:01.557Z,48.93
2022-11-28T22:56:32.439Z,46.23
2022-11-28T22:59:00.825Z,44.03
2022-11-28T23:01:30.698Z,36.70
2022-11-28T23:03:58.646Z,41.00
2022-11-28T23:06:31.304Z,37.37
2022-11-28T23:08:59.694Z,49.13
2022-11-28T23:11:30.887Z,43.83
2022-11-28T23:13:59.055Z,37.67
2022-11-28T23:16:33.983Z,41.17
2022-11-28T23:19:06.004Z,41.27
2022-11-28T23:21:37.635Z,39.37
2022-11-28T23:24:11.760Z,43.37
2022-11-28T23:26:38.837Z,52.90
2022-11-28T23:29:06.478Z,48.67
2022-11-28T23:31:38.063Z,41.20
2022-11-28T23:34:05.891Z,39.03
2022-11-28T23:36:42.447Z,43.03
2022-11-28T23:39:19.716Z,42.33
2022-11-28T23:41:47.226Z,34.73
2022-11-28T23:44:16.800Z,44.87
2022-11-28T23:46:44.393Z,33.87
2022-11-28T23:49:12.321Z,42.17
2022-11-28T23:51:40.599Z,42.30
2022-11-28T23:54:08.944Z,37.13
2022-11-28T23:56:37.928Z,35.03
2022-11-28T23:59:07.556Z,37.93
